Copper Mountain — WDI8648 — position and weather

sailwx.info

Track history (hours):
 
Tides and Currents Weather Stations Pressure Air Temp Water Temp Dewpoint Dewpoint Depression Visibility Wind Speed Wind Dir Waves Ship Positions

Copper Mountain

Owner: Harley Marine Services, Inc, Seattle, WA. More information available from US FCC via Universal Licensing System and Coast Guard Vessel Documentation Center.

Last reported at 2017-Sep-17 03:06 UTC. Time now 2017-Sep-22 17:23 UTC.
Position N 27°41' W 082°34'.

Length 39 m; draft 2 m.

Type: Tug. MMSI: 367740720.

Date/timePositionNaut miles runAvg speedWind from/ knotsBaromVisibWave heightAir tempDewpointWater temp
2017-Sep-17 03:06N 27°41' W 082°34'4 8.7
2017-Sep-17 02:42N 27°44' W 082°32'2 9.1
2017-Sep-17 02:30N 27°46' W 082°31'4 8.5
2017-Sep-17 02:00N 27°48' W 082°28'4 9.0
2017-Sep-17 01:30N 27°53' W 082°26'2 5.0
2017-Sep-17 01:00N 27°55' W 082°27'0 0.0
2017-Sep-17 00:30N 27°55' W 082°27'0 0.0
2017-Sep-17 00:00N 27°55' W 082°27'0 0.0
2017-Sep-16 23:30N 27°55' W 082°27'0 0.0
2017-Sep-16 23:00N 27°55' W 082°27'0 0.0
2017-Sep-16 22:30N 27°55' W 082°27'0 0.0
2017-Sep-16 22:00N 27°55' W 082°27'0 0.0
2017-Sep-16 21:30N 27°55' W 082°27'0 0.0
2017-Sep-16 21:00N 27°55' W 082°27'0 0.0
2017-Sep-16 20:30N 27°55' W 082°27'0 0.0
2017-Sep-16 20:00N 27°55' W 082°27'0 0.0
2017-Sep-16 19:30N 27°55' W 082°27'0 0.0
2017-Sep-16 18:57N 27°55' W 082°27'0 0.0
2017-Sep-16 18:30N 27°55' W 082°27'0 0.0
2017-Sep-16 18:00N 27°55' W 082°27'0 0.0
2017-Sep-16 17:30N 27°55' W 082°27'0 0.0
2017-Sep-16 17:00N 27°55' W 082°27'0 0.0
2017-Sep-16 16:30N 27°55' W 082°27'0 0.0
2017-Sep-16 16:00N 27°55' W 082°27'0 0.0
2017-Sep-16 15:30N 27°55' W 082°27'0 0.0
2017-Sep-16 15:00N 27°55' W 082°27'0 0.0
2017-Sep-16 14:30N 27°55' W 082°27'0 0.0
2017-Sep-16 14:00N 27°55' W 082°27'0 0.0
2017-Sep-16 13:30N 27°55' W 082°27'0 0.0
2017-Sep-16 13:00N 27°55' W 082°27'0 0.0
2017-Sep-16 12:30N 27°55' W 082°27'0 0.0
2017-Sep-16 12:00N 27°55' W 082°27'0 0.0
2017-Sep-16 11:30N 27°55' W 082°27'0 0.0
2017-Sep-16 10:57N 27°55' W 082°27'0 0.0
2017-Sep-16 10:30N 27°55' W 082°27'0 0.0
2017-Sep-16 10:00N 27°55' W 082°27'0 0.0
2017-Sep-16 09:30N 27°55' W 082°27'0 0.0
2017-Sep-16 09:00N 27°55' W 082°27'0 0.0
2017-Sep-16 08:30N 27°55' W 082°27'0 0.0
2017-Sep-16 08:00N 27°55' W 082°27'0 0.0
2017-Sep-16 07:30N 27°55' W 082°27'0 0.0
2017-Sep-16 07:00N 27°55' W 082°27'0 0.0
2017-Sep-16 06:30N 27°55' W 082°27'0 0.0
2017-Sep-16 06:00N 27°55' W 082°27'0 0.0
2017-Sep-16 05:27N 27°55' W 082°27'0 0.0
2017-Sep-16 05:00N 27°55' W 082°27'0 0.0
2017-Sep-16 04:30N 27°55' W 082°27'0 0.0
2017-Sep-16 03:54N 27°55' W 082°27'0 0.0
2017-Sep-16 03:27N 27°55' W 082°27'0 0.0
2017-Sep-16 03:00N 27°55' W 082°27'0 0.0
2017-Sep-16 02:30N 27°55' W 082°27'0 0.0
2017-Sep-16 02:00N 27°55' W 082°27'0 0.0
2017-Sep-16 01:30N 27°55' W 082°27'0 0.0
2017-Sep-16 01:00N 27°55' W 082°27'0 0.0
2017-Sep-16 00:30N 27°55' W 082°27'0 0.0
2017-Sep-16 00:00N 27°55' W 082°27'0 0.0
2017-Sep-15 23:30N 27°55' W 082°27'0 0.0
2017-Sep-15 23:00N 27°55' W 082°27'0 0.4
2017-Sep-15 22:30N 27°55' W 082°27'2 4.4
2017-Sep-15 22:00N 27°53' W 082°26'3 5.3
2017-Sep-15 21:30N 27°50' W 082°27'5 3.0
2017-Sep-15 19:44N 27°48' W 082°32'0 0.1
2017-Sep-15 19:26N 27°48' W 082°32'0 0.0
2017-Sep-15 18:59N 27°48' W 082°32'0 0.0
2017-Sep-15 15:16N 27°48' W 082°32'1 5.2
2017-Sep-15 15:00N 27°46' W 082°31'  
Track history (hours):
 
Tides and Currents Weather Stations Pressure Air Temp Water Temp Dewpoint Dewpoint Depression Visibility Wind Speed Wind Dir Waves Ship Positions

Copper Mountain

Owner: Harley Marine Services, Inc, Seattle, WA. More information available from US FCC via Universal Licensing System and Coast Guard Vessel Documentation Center.

Last reported at 2017-Sep-17 03:06 UTC. Time now 2017-Sep-22 17:23 UTC.
Position N 27°41' W 082°34'.

Length 39 m; draft 2 m.

Type: Tug. MMSI: 367740720.

Date/timePositionNaut miles runAvg speedWind from/ knotsBaromVisibWave heightAir tempDewpointWater temp
2017-Sep-17 03:06N 27°41' W 082°34'4 8.7
2017-Sep-17 02:42N 27°44' W 082°32'2 9.1
2017-Sep-17 02:30N 27°46' W 082°31'4 8.5
2017-Sep-17 02:00N 27°48' W 082°28'4 9.0
2017-Sep-17 01:30N 27°53' W 082°26'2 5.0
2017-Sep-17 01:00N 27°55' W 082°27'0 0.0
2017-Sep-17 00:30N 27°55' W 082°27'0 0.0
2017-Sep-17 00:00N 27°55' W 082°27'0 0.0
2017-Sep-16 23:30N 27°55' W 082°27'0 0.0
2017-Sep-16 23:00N 27°55' W 082°27'0 0.0
2017-Sep-16 22:30N 27°55' W 082°27'0 0.0
2017-Sep-16 22:00N 27°55' W 082°27'0 0.0
2017-Sep-16 21:30N 27°55' W 082°27'0 0.0
2017-Sep-16 21:00N 27°55' W 082°27'0 0.0
2017-Sep-16 20:30N 27°55' W 082°27'0 0.0
2017-Sep-16 20:00N 27°55' W 082°27'0 0.0
2017-Sep-16 19:30N 27°55' W 082°27'0 0.0
2017-Sep-16 18:57N 27°55' W 082°27'0 0.0
2017-Sep-16 18:30N 27°55' W 082°27'0 0.0
2017-Sep-16 18:00N 27°55' W 082°27'0 0.0
2017-Sep-16 17:30N 27°55' W 082°27'0 0.0
2017-Sep-16 17:00N 27°55' W 082°27'0 0.0
2017-Sep-16 16:30N 27°55' W 082°27'0 0.0
2017-Sep-16 16:00N 27°55' W 082°27'0 0.0
2017-Sep-16 15:30N 27°55' W 082°27'0 0.0
2017-Sep-16 15:00N 27°55' W 082°27'0 0.0
2017-Sep-16 14:30N 27°55' W 082°27'0 0.0
2017-Sep-16 14:00N 27°55' W 082°27'0 0.0
2017-Sep-16 13:30N 27°55' W 082°27'0 0.0
2017-Sep-16 13:00N 27°55' W 082°27'0 0.0
2017-Sep-16 12:30N 27°55' W 082°27'0 0.0
2017-Sep-16 12:00N 27°55' W 082°27'0 0.0
2017-Sep-16 11:30N 27°55' W 082°27'0 0.0
2017-Sep-16 10:57N 27°55' W 082°27'0 0.0
2017-Sep-16 10:30N 27°55' W 082°27'0 0.0
2017-Sep-16 10:00N 27°55' W 082°27'0 0.0
2017-Sep-16 09:30N 27°55' W 082°27'0 0.0
2017-Sep-16 09:00N 27°55' W 082°27'0 0.0
2017-Sep-16 08:30N 27°55' W 082°27'0 0.0
2017-Sep-16 08:00N 27°55' W 082°27'0 0.0
2017-Sep-16 07:30N 27°55' W 082°27'0 0.0
2017-Sep-16 07:00N 27°55' W 082°27'0 0.0
2017-Sep-16 06:30N 27°55' W 082°27'0 0.0
2017-Sep-16 06:00N 27°55' W 082°27'0 0.0
2017-Sep-16 05:27N 27°55' W 082°27'0 0.0
2017-Sep-16 05:00N 27°55' W 082°27'0 0.0
2017-Sep-16 04:30N 27°55' W 082°27'0 0.0
2017-Sep-16 03:54N 27°55' W 082°27'0 0.0
2017-Sep-16 03:27N 27°55' W 082°27'0 0.0
2017-Sep-16 03:00N 27°55' W 082°27'0 0.0
2017-Sep-16 02:30N 27°55' W 082°27'0 0.0
2017-Sep-16 02:00N 27°55' W 082°27'0 0.0
2017-Sep-16 01:30N 27°55' W 082°27'0 0.0
2017-Sep-16 01:00N 27°55' W 082°27'0 0.0
2017-Sep-16 00:30N 27°55' W 082°27'0 0.0
2017-Sep-16 00:00N 27°55' W 082°27'0 0.0
2017-Sep-15 23:30N 27°55' W 082°27'0 0.0
2017-Sep-15 23:00N 27°55' W 082°27'0 0.4
2017-Sep-15 22:30N 27°55' W 082°27'2 4.4
2017-Sep-15 22:00N 27°53' W 082°26'3 5.3
2017-Sep-15 21:30N 27°50' W 082°27'5 3.0
2017-Sep-15 19:44N 27°48' W 082°32'0 0.1
2017-Sep-15 19:26N 27°48' W 082°32'0 0.0
2017-Sep-15 18:59N 27°48' W 082°32'0 0.0
2017-Sep-15 15:16N 27°48' W 082°32'1 5.2
2017-Sep-15 15:00N 27°46' W 082°31'  

Dump ship's entire track history